Time;durP1;ratioP1;P1;durP2;ratioP2;P2;SDS_P1;SDS_P2;PMS_P1;PMS_P2;Temp;Humidity;BMP_temperature;BMP_pressure;BME280_temperature;BME280_humidity;BME280_pressure;Samples;Min_cycle;Max_cycle;Signal;HPM_P1;HPM_P2
2023/07/29 00:00:47;;;;;;;6.20;5.60;;;;;;;;;;5033426;28;20525;-79
2023/07/29 00:03:15;;;;;;;5.93;5.33;;;;;;;;;;5033772;28;20438;-79
2023/07/29 00:05:42;;;;;;;6.37;5.87;;;;;;;;;;5033462;28;20447;-80
2023/07/29 00:08:09;;;;;;;9.50;5.20;;;;;;;;;;5033811;28;20803;-80
2023/07/29 00:10:37;;;;;;;6.40;4.80;;;;;;;;;;5033781;28;20441;-80
2023/07/29 00:13:05;;;;;;;5.70;5.20;;;;;;;;;;5032751;28;20482;-80
2023/07/29 00:15:32;;;;;;;6.07;5.23;;;;;;;;;;5033873;28;20486;-79
2023/07/29 00:17:59;;;;;;;6.77;5.63;;;;;;;;;;5033859;28;20438;-79
2023/07/29 00:20:28;;;;;;;12.07;6.10;;;;;;;;;;5033557;28;20442;-79
2023/07/29 00:22:55;;;;;;;5.53;5.00;;;;;;;;;;5033405;28;20445;-79
2023/07/29 00:25:22;;;;;;;4.97;4.47;;;;;;;;;;5032907;28;20495;-80
2023/07/29 00:27:49;;;;;;;5.43;4.93;;;;;;;;;;5032910;28;20445;-81
2023/07/29 00:30:16;;;;;;;6.10;5.50;;;;;;;;;;5033191;28;20445;-80
2023/07/29 00:32:44;;;;;;;5.37;4.87;;;;;;;;;;5033018;28;20445;-80
2023/07/29 00:35:11;;;;;;;4.83;4.27;;;;;;;;;;5033326;28;20503;-80
2023/07/29 00:37:39;;;;;;;4.97;4.57;;;;;;;;;;5033325;28;20455;-80
2023/07/29 00:40:12;;;;;;;6.43;5.00;;;;;;;;;;5033199;28;20535;-80
2023/07/29 00:42:39;;;;;;;5.40;5.00;;;;;;;;;;5033149;28;20436;-80
2023/07/29 00:45:07;;;;;;;7.63;4.90;;;;;;;;;;5033138;28;20848;-80
2023/07/29 00:47:34;;;;;;;5.40;4.90;;;;;;;;;;5033171;28;20865;-80
2023/07/29 00:50:02;;;;;;;4.70;4.30;;;;;;;;;;5033138;28;20784;-81
2023/07/29 00:52:29;;;;;;;4.47;4.17;;;;;;;;;;5032821;28;20533;-80
2023/07/29 00:54:58;;;;;;;5.63;5.00;;;;;;;;;;5032531;28;20446;-79
2023/07/29 00:57:26;;;;;;;5.40;4.60;;;;;;;;;;5033735;28;20446;-80
2023/07/29 00:59:53;;;;;;;5.13;4.70;;;;;;;;;;5032989;28;20465;-80
2023/07/29 01:02:21;;;;;;;5.30;4.80;;;;;;;;;;5032581;28;20442;-80
2023/07/29 01:04:52;;;;;;;6.77;5.00;;;;;;;;;;5032859;28;20446;-80
2023/07/29 01:07:23;;;;;;;5.30;4.80;;;;;;;;;;5032980;28;20441;-80
2023/07/29 01:09:57;;;;;;;6.10;5.50;;;;;;;;;;5033004;28;20434;-80
2023/07/29 01:12:30;;;;;;;5.13;4.73;;;;;;;;;;5032653;28;20988;-80
2023/07/29 01:15:01;;;;;;;5.33;4.80;;;;;;;;;;5032995;28;20429;-79
2023/07/29 01:17:31;;;;;;;6.70;5.93;;;;;;;;;;5032791;28;20953;-80
2023/07/29 01:20:03;;;;;;;5.73;5.13;;;;;;;;;;5032867;28;20462;-80
2023/07/29 01:22:31;;;;;;;6.00;5.60;;;;;;;;;;5033129;28;20430;-80
2023/07/29 01:25:00;;;;;;;6.93;6.33;;;;;;;;;;5032457;28;20470;-80
2023/07/29 01:27:27;;;;;;;6.60;6.00;;;;;;;;;;5037432;28;20448;-80
2023/07/29 01:29:55;;;;;;;5.93;5.30;;;;;;;;;;5036208;28;20927;-79
2023/07/29 01:32:27;;;;;;;6.80;6.17;;;;;;;;;;5036229;28;20446;-79
2023/07/29 01:34:58;;;;;;;7.00;6.27;;;;;;;;;;5036566;28;20440;-80
2023/07/29 01:37:28;;;;;;;6.50;5.77;;;;;;;;;;5036396;28;20568;-80
2023/07/29 01:39:57;;;;;;;6.57;6.00;;;;;;;;;;5036490;28;20434;-80
2023/07/29 01:42:26;;;;;;;8.47;6.47;;;;;;;;;;5036861;28;20866;-80
2023/07/29 01:44:54;;;;;;;9.07;6.30;;;;;;;;;;5035927;28;20971;-79
2023/07/29 01:47:23;;;;;;;6.60;5.80;;;;;;;;;;5035959;28;20541;-80
2023/07/29 01:49:50;;;;;;;7.07;6.37;;;;;;;;;;5035787;28;20449;-80
2023/07/29 01:52:18;;;;;;;8.40;6.63;;;;;;;;;;5036197;28;20467;-80
2023/07/29 01:54:45;;;;;;;6.83;6.10;;;;;;;;;;5035892;28;20536;-79
2023/07/29 01:57:12;;;;;;;7.53;5.50;;;;;;;;;;5035513;28;20488;-80
2023/07/29 01:59:41;;;;;;;6.17;5.30;;;;;;;;;;5035710;28;20536;-80
2023/07/29 02:02:08;;;;;;;5.70;5.30;;;;;;;;;;5035967;28;20549;-80
2023/07/29 02:04:35;;;;;;;6.10;4.90;;;;;;;;;;5035580;28;20545;-80
2023/07/29 02:07:03;;;;;;;5.90;5.40;;;;;;;;;;5035945;28;20453;-79
2023/07/29 02:09:30;;;;;;;7.07;5.63;;;;;;;;;;5036203;28;20531;-80
2023/07/29 02:11:58;;;;;;;6.47;5.87;;;;;;;;;;5036051;28;20448;-79
2023/07/29 02:14:25;;;;;;;6.40;5.90;;;;;;;;;;5036033;28;20449;-79
2023/07/29 02:16:54;;;;;;;6.07;5.57;;;;;;;;;;5035511;28;20473;-80
2023/07/29 02:19:21;;;;;;;5.60;5.10;;;;;;;;;;5036060;28;20441;-79
2023/07/29 02:21:48;;;;;;;5.60;5.10;;;;;;;;;;5035481;28;20453;-79
2023/07/29 02:24:15;;;;;;;5.53;5.10;;;;;;;;;;5035227;28;20446;-80
2023/07/29 02:26:43;;;;;;;6.10;5.60;;;;;;;;;;5035344;28;20946;-79
2023/07/29 02:29:10;;;;;;;6.10;5.63;;;;;;;;;;5035045;28;20455;-80
2023/07/29 02:31:38;;;;;;;7.80;5.53;;;;;;;;;;5035179;28;20531;-79
2023/07/29 02:34:06;;;;;;;6.37;5.80;;;;;;;;;;5035607;28;20481;-79
2023/07/29 02:36:33;;;;;;;6.77;6.07;;;;;;;;;;5034546;28;20488;-79
2023/07/29 02:39:01;;;;;;;6.07;5.57;;;;;;;;;;5035082;28;20449;-79
2023/07/29 02:41:28;;;;;;;8.13;6.03;;;;;;;;;;5034970;28;20918;-80
2023/07/29 02:43:56;;;;;;;6.70;6.10;;;;;;;;;;5035298;28;20448;-79
2023/07/29 02:46:22;;;;;;;6.60;6.00;;;;;;;;;;5035303;28;20455;-80
2023/07/29 02:48:49;;;;;;;6.17;5.73;;;;;;;;;;5035703;28;20529;-79
2023/07/29 02:51:18;;;;;;;6.30;5.77;;;;;;;;;;5015039;28;20439;-79
2023/07/29 02:53:45;;;;;;;6.90;6.30;;;;;;;;;;5015098;28;20443;-79
2023/07/29 02:56:12;;;;;;;7.07;6.37;;;;;;;;;;5015129;28;20815;-79
2023/07/29 02:58:39;;;;;;;6.57;5.80;;;;;;;;;;5015268;28;20441;-78
2023/07/29 03:01:07;;;;;;;9.20;6.10;;;;;;;;;;5014730;28;20962;-79
2023/07/29 03:03:35;;;;;;;7.40;6.70;;;;;;;;;;5015020;28;20445;-78
2023/07/29 03:06:03;;;;;;;6.93;6.40;;;;;;;;;;5014750;28;20451;-80
2023/07/29 03:08:32;;;;;;;6.70;6.10;;;;;;;;;;5014784;28;20444;-79
2023/07/29 03:10:59;;;;;;;7.33;6.73;;;;;;;;;;5015097;28;20449;-79
2023/07/29 03:13:27;;;;;;;7.90;7.10;;;;;;;;;;5015271;28;20508;-79
2023/07/29 03:15:54;;;;;;;8.30;7.70;;;;;;;;;;5014743;28;20557;-80
2023/07/29 03:18:21;;;;;;;6.87;6.27;;;;;;;;;;5014772;28;20466;-80
2023/07/29 03:20:50;;;;;;;7.20;6.60;;;;;;;;;;5014347;28;20889;-80
2023/07/29 03:23:17;;;;;;;8.43;6.40;;;;;;;;;;5014625;28;20450;-80
2023/07/29 03:25:50;;;;;;;7.50;6.90;;;;;;;;;;5014195;28;20493;-80
2023/07/29 03:28:17;;;;;;;7.17;6.60;;;;;;;;;;5014938;28;20584;-80
2023/07/29 03:30:45;;;;;;;7.80;7.10;;;;;;;;;;5014591;28;20447;-79
2023/07/29 03:33:12;;;;;;;8.20;7.33;;;;;;;;;;5014329;28;20903;-79
2023/07/29 03:35:39;;;;;;;10.17;7.53;;;;;;;;;;5014606;28;20450;-79
2023/07/29 03:38:06;;;;;;;7.23;6.63;;;;;;;;;;5014606;28;20577;-77
2023/07/29 03:40:33;;;;;;;8.50;7.70;;;;;;;;;;5014969;28;20859;-79
2023/07/29 03:43:02;;;;;;;9.30;8.50;;;;;;;;;;5014166;28;20928;-79
2023/07/29 03:45:29;;;;;;;9.50;8.60;;;;;;;;;;5014358;28;20448;-78
2023/07/29 03:47:57;;;;;;;9.03;8.17;;;;;;;;;;5013357;28;20446;-81
2023/07/29 03:50:24;;;;;;;8.53;7.80;;;;;;;;;;5014463;28;20457;-79
2023/07/29 03:52:51;;;;;;;8.03;7.33;;;;;;;;;;5014882;28;20450;-79
2023/07/29 03:55:18;;;;;;;9.13;8.43;;;;;;;;;;5014160;28;20450;-78
2023/07/29 03:57:46;;;;;;;10.77;8.67;;;;;;;;;;5013008;28;20503;-79
2023/07/29 04:00:14;;;;;;;9.47;8.53;;;;;;;;;;5013553;28;20450;-78
2023/07/29 04:02:42;;;;;;;9.27;8.33;;;;;;;;;;5014046;28;20443;-78
2023/07/29 04:05:10;;;;;;;8.57;7.77;;;;;;;;;;5013951;28;20447;-78
2023/07/29 04:07:37;;;;;;;9.37;8.57;;;;;;;;;;5013717;28;20460;-78
2023/07/29 04:10:06;;;;;;;8.23;7.43;;;;;;;;;;5013322;28;20447;-79
2023/07/29 04:12:33;;;;;;;9.50;8.47;;;;;;;;;;5013415;28;20439;-78
2023/07/29 04:15:00;;;;;;;9.67;8.77;;;;;;;;;;5013849;28;20453;-77
2023/07/29 04:17:29;;;;;;;9.23;8.33;;;;;;;;;;5013332;28;20533;-78
2023/07/29 04:19:56;;;;;;;9.90;9.10;;;;;;;;;;5013744;28;20439;-78
2023/07/29 04:22:23;;;;;;;9.20;8.50;;;;;;;;;;5013470;28;20465;-77
2023/07/29 04:24:50;;;;;;;11.20;9.97;;;;;;;;;;5015377;28;20466;-78
2023/07/29 04:27:17;;;;;;;10.93;10.03;;;;;;;;;;5012932;28;20450;-79
2023/07/29 04:29:45;;;;;;;10.00;9.00;;;;;;;;;;5013351;28;20453;-78
2023/07/29 04:32:12;;;;;;;10.07;9.27;;;;;;;;;;5012973;28;20446;-79
2023/07/29 04:34:40;;;;;;;9.07;8.30;;;;;;;;;;5013283;28;20456;-78
2023/07/29 04:37:08;;;;;;;9.50;8.67;;;;;;;;;;5013264;28;20485;-78
2023/07/29 04:39:35;;;;;;;9.07;8.27;;;;;;;;;;5013131;28;20440;-79
2023/07/29 04:42:02;;;;;;;9.67;8.87;;;;;;;;;;5013159;28;20459;-78
2023/07/29 04:44:29;;;;;;;9.37;8.57;;;;;;;;;;5013325;28;20451;-77
2023/07/29 04:46:56;;;;;;;10.23;8.37;;;;;;;;;;5013231;28;20461;-77
2023/07/29 04:49:24;;;;;;;9.80;8.80;;;;;;;;;;5013157;28;20453;-78
2023/07/29 04:51:52;;;;;;;8.83;8.10;;;;;;;;;;5013038;28;20442;-78
2023/07/29 04:54:20;;;;;;;9.33;8.43;;;;;;;;;;5012734;28;20760;-78
2023/07/29 04:56:47;;;;;;;9.07;8.23;;;;;;;;;;5013094;28;20486;-78
2023/07/29 04:59:14;;;;;;;13.13;9.07;;;;;;;;;;5012479;28;20486;-79
2023/07/29 05:01:42;;;;;;;9.00;8.13;;;;;;;;;;5013080;28;20447;-79
2023/07/29 05:04:10;;;;;;;9.97;8.30;;;;;;;;;;5013072;28;20447;-77
2023/07/29 05:06:37;;;;;;;8.70;8.00;;;;;;;;;;5013863;28;20539;-77
2023/07/29 05:09:15;;;;;;;9.33;8.47;;;;;;;;;;5013280;28;20458;-77
2023/07/29 05:11:43;;;;;;;10.40;9.50;;;;;;;;;;5013284;28;20461;-77
2023/07/29 05:14:10;;;;;;;10.43;7.63;;;;;;;;;;5013432;28;20465;-77
2023/07/29 05:16:37;;;;;;;13.10;8.73;;;;;;;;;;5012469;28;20482;-77
2023/07/29 05:19:05;;;;;;;14.00;8.70;;;;;;;;;;5012834;28;20545;-78
2023/07/29 05:21:32;;;;;;;9.77;8.87;;;;;;;;;;5012592;28;20443;-78
2023/07/29 05:23:59;;;;;;;10.47;9.00;;;;;;;;;;5012931;28;20533;-78
2023/07/29 05:26:27;;;;;;;9.87;8.90;;;;;;;;;;5013188;28;20479;-79
2023/07/29 05:28:55;;;;;;;9.53;8.73;;;;;;;;;;5012757;28;20455;-79
2023/07/29 05:31:22;;;;;;;9.63;8.87;;;;;;;;;;5012743;28;20908;-79
2023/07/29 05:33:49;;;;;;;10.33;9.43;;;;;;;;;;5012980;28;20533;-78
2023/07/29 05:36:16;;;;;;;11.30;10.10;;;;;;;;;;5012910;28;20446;-77
2023/07/29 05:38:49;;;;;;;10.50;9.50;;;;;;;;;;5012877;28;20485;-78
2023/07/29 05:41:17;;;;;;;10.93;8.50;;;;;;;;;;5013097;28;20434;-77
2023/07/29 05:43:45;;;;;;;10.00;9.10;;;;;;;;;;5012885;28;20545;-78
2023/07/29 05:46:12;;;;;;;10.90;9.80;;;;;;;;;;5012655;28;20451;-78
2023/07/29 05:48:39;;;;;;;11.53;10.37;;;;;;;;;;5012578;28;20451;-78
2023/07/29 05:51:07;;;;;;;12.00;10.80;;;;;;;;;;5012926;28;20443;-78
2023/07/29 05:53:34;;;;;;;11.17;10.17;;;;;;;;;;5012658;28;20541;-78
2023/07/29 05:56:01;;;;;;;10.47;9.50;;;;;;;;;;5012734;28;20447;-78
2023/07/29 05:58:30;;;;;;;12.70;11.27;;;;;;;;;;5012831;28;20481;-78
2023/07/29 06:00:59;;;;;;;13.50;10.13;;;;;;;;;;5012328;28;20533;-78
2023/07/29 06:03:26;;;;;;;11.17;9.97;;;;;;;;;;5012622;28;20932;-77
2023/07/29 06:05:53;;;;;;;10.90;9.90;;;;;;;;;;5012581;28;20550;-78
2023/07/29 06:08:21;;;;;;;12.27;11.10;;;;;;;;;;5012652;28;20446;-77
2023/07/29 06:10:48;;;;;;;11.20;10.20;;;;;;;;;;5012827;28;20431;-77
2023/07/29 06:13:15;;;;;;;12.17;9.23;;;;;;;;;;5014821;28;20450;-77
2023/07/29 06:15:42;;;;;;;8.83;8.13;;;;;;;;;;5016392;28;20791;-74
2023/07/29 06:18:11;;;;;;;12.73;9.93;;;;;;;;;;5016042;28;20514;-76
2023/07/29 06:20:38;;;;;;;9.90;9.07;;;;;;;;;;5015957;28;20451;-76
2023/07/29 06:23:06;;;;;;;10.27;9.37;;;;;;;;;;5016040;28;20450;-76
2023/07/29 06:25:33;;;;;;;9.60;8.80;;;;;;;;;;5015372;28;20475;-76
2023/07/29 06:28:00;;;;;;;11.10;9.17;;;;;;;;;;5015956;28;20873;-76
2023/07/29 06:30:27;;;;;;;10.10;9.10;;;;;;;;;;5015846;28;20447;-75
2023/07/29 06:32:54;;;;;;;11.30;10.20;;;;;;;;;;5015577;28;20435;-74
2023/07/29 06:35:23;;;;;;;11.67;10.67;;;;;;;;;;5015504;28;21047;-78
2023/07/29 06:37:50;;;;;;;11.60;10.53;;;;;;;;;;5015832;28;20487;-79
2023/07/29 06:40:18;;;;;;;10.87;9.90;;;;;;;;;;5015624;28;20464;-80
2023/07/29 06:42:45;;;;;;;10.47;9.47;;;;;;;;;;5015238;28;20446;-79
2023/07/29 06:45:12;;;;;;;11.47;10.37;;;;;;;;;;5015640;28;20474;-77
2023/07/29 06:47:39;;;;;;;10.40;9.40;;;;;;;;;;5015346;28;20943;-79
2023/07/29 06:50:07;;;;;;;10.00;9.07;;;;;;;;;;5015756;28;20545;-80
2023/07/29 06:52:36;;;;;;;10.43;9.53;;;;;;;;;;5015768;28;20443;-79
2023/07/29 06:55:04;;;;;;;10.23;8.80;;;;;;;;;;5015251;28;20529;-79
2023/07/29 06:57:31;;;;;;;9.03;8.33;;;;;;;;;;5015019;28;20484;-79
2023/07/29 06:59:58;;;;;;;7.43;6.60;;;;;;;;;;5015425;28;20454;-79
2023/07/29 07:02:25;;;;;;;6.50;5.83;;;;;;;;;;5015049;28;20979;-78
2023/07/29 07:04:52;;;;;;;5.30;4.80;;;;;;;;;;5015229;28;20794;-78
2023/07/29 07:07:19;;;;;;;6.63;4.60;;;;;;;;;;5014952;28;20947;-79
2023/07/29 07:09:48;;;;;;;3.13;2.93;;;;;;;;;;5015130;28;20807;-78
2023/07/29 07:12:15;;;;;;;4.20;3.20;;;;;;;;;;5014704;28;20447;-78
2023/07/29 07:14:42;;;;;;;3.33;2.63;;;;;;;;;;5014443;28;20937;-78
2023/07/29 07:17:10;;;;;;;2.67;2.47;;;;;;;;;;5015034;28;20485;-79
2023/07/29 07:19:37;;;;;;;3.43;3.10;;;;;;;;;;5014821;28;20446;-79
2023/07/29 07:22:04;;;;;;;3.20;2.70;;;;;;;;;;5014792;28;20445;-78
2023/07/29 07:24:32;;;;;;;4.57;3.20;;;;;;;;;;5014227;28;20845;-78
2023/07/29 07:27:00;;;;;;;3.17;2.90;;;;;;;;;;5015084;28;20802;-79
2023/07/29 07:29:27;;;;;;;3.50;2.67;;;;;;;;;;5014424;28;20443;-79
2023/07/29 07:31:55;;;;;;;3.13;2.80;;;;;;;;;;5014757;28;20441;-78
2023/07/29 07:34:23;;;;;;;2.40;2.20;;;;;;;;;;5014511;28;20465;-78
2023/07/29 07:36:50;;;;;;;2.57;2.20;;;;;;;;;;5014802;28;20534;-76
2023/07/29 07:39:17;;;;;;;4.37;2.27;;;;;;;;;;5014157;28;21001;-79
2023/07/29 07:41:44;;;;;;;2.50;2.30;;;;;;;;;;5014353;28;20439;-79
2023/07/29 07:44:15;;;;;;;2.20;2.10;;;;;;;;;;5014260;28;20451;-79
2023/07/29 07:46:42;;;;;;;2.30;2.10;;;;;;;;;;5014476;28;20434;-78
2023/07/29 07:49:09;;;;;;;3.07;2.77;;;;;;;;;;5014087;28;20446;-79
2023/07/29 07:51:36;;;;;;;2.37;2.17;;;;;;;;;;5014044;28;20458;-80
2023/07/29 07:54:04;;;;;;;3.00;2.80;;;;;;;;;;5013715;28;20454;-78
2023/07/29 07:56:31;;;;;;;2.87;2.67;;;;;;;;;;5015315;28;20542;-79
2023/07/29 07:58:58;;;;;;;2.70;2.50;;;;;;;;;;5017072;28;20479;-80
2023/07/29 08:01:27;;;;;;;3.37;2.80;;;;;;;;;;5017415;28;20443;-79
2023/07/29 08:03:54;;;;;;;2.63;2.43;;;;;;;;;;5014342;28;20452;-79
2023/07/29 08:06:21;;;;;;;5.00;2.70;;;;;;;;;;5014075;28;20454;-78
2023/07/29 08:08:48;;;;;;;2.87;2.50;;;;;;;;;;5013975;28;20457;-77
2023/07/29 08:11:16;;;;;;;2.60;2.40;;;;;;;;;;5014332;28;20485;-78
2023/07/29 08:13:43;;;;;;;3.00;2.80;;;;;;;;;;5013777;28;20443;-78
2023/07/29 08:16:10;;;;;;;2.50;2.30;;;;;;;;;;5013633;28;20485;-79
2023/07/29 08:18:38;;;;;;;3.00;2.80;;;;;;;;;;5013433;28;20485;-78
2023/07/29 08:21:06;;;;;;;2.80;2.60;;;;;;;;;;5013773;28;20468;-79
2023/07/29 08:23:34;;;;;;;2.80;2.60;;;;;;;;;;5013561;28;20505;-78
2023/07/29 08:26:03;;;;;;;2.83;2.63;;;;;;;;;;5013600;28;20546;-77
2023/07/29 08:28:32;;;;;;;3.10;2.60;;;;;;;;;;5013643;28;20954;-79
2023/07/29 08:30:59;;;;;;;2.63;2.37;;;;;;;;;;5014300;28;20453;-79
2023/07/29 08:33:26;;;;;;;4.53;1.90;;;;;;;;;;5015449;28;20450;-80
2023/07/29 08:35:55;;;;;;;2.43;2.23;;;;;;;;;;5014837;28;20454;-79
2023/07/29 08:38:22;;;;;;;3.20;2.13;;;;;;;;;;5012616;28;20984;-79
2023/07/29 08:40:54;;;;;;;2.53;2.33;;;;;;;;;;5013763;28;20469;-80
2023/07/29 08:43:22;;;;;;;4.93;1.80;;;;;;;;;;5013658;28;20435;-80
2023/07/29 08:45:49;;;;;;;2.00;1.80;;;;;;;;;;5013311;28;20464;-79
2023/07/29 08:48:21;;;;;;;2.20;2.00;;;;;;;;;;5013497;28;20854;-79
2023/07/29 08:50:48;;;;;;;2.37;1.73;;;;;;;;;;5013146;28;20435;-79
2023/07/29 08:53:17;;;;;;;2.17;2.07;;;;;;;;;;5013032;28;20457;-79
2023/07/29 08:55:44;;;;;;;2.47;2.27;;;;;;;;;;5012962;28;20456;-78
2023/07/29 08:58:12;;;;;;;2.17;1.90;;;;;;;;;;5013488;28;20485;-78
2023/07/29 09:00:40;;;;;;;2.90;2.23;;;;;;;;;;5013269;28;20449;-77
2023/07/29 09:03:07;;;;;;;2.00;1.90;;;;;;;;;;5013487;28;20458;-78
2023/07/29 09:05:35;;;;;;;1.70;1.60;;;;;;;;;;5012848;28;20440;-77
2023/07/29 09:08:03;;;;;;;2.50;1.57;;;;;;;;;;5013202;28;20450;-78
2023/07/29 09:10:37;;;;;;;1.80;1.70;;;;;;;;;;5013168;28;20469;-79
2023/07/29 09:13:04;;;;;;;1.70;1.60;;;;;;;;;;5013131;28;20439;-78
2023/07/29 09:15:32;;;;;;;2.17;1.50;;;;;;;;;;5012683;28;20454;-78
2023/07/29 09:17:59;;;;;;;1.40;1.30;;;;;;;;;;5013187;28;20474;-80
2023/07/29 09:20:27;;;;;;;2.40;1.70;;;;;;;;;;5013416;28;20443;-79
2023/07/29 09:22:55;;;;;;;1.40;1.30;;;;;;;;;;5013152;28;20507;-77
2023/07/29 09:25:26;;;;;;;1.73;1.63;;;;;;;;;;5012647;28;20475;-78
2023/07/29 09:27:54;;;;;;;1.50;1.40;;;;;;;;;;5013155;28;20441;-81
2023/07/29 09:30:22;;;;;;;1.60;1.50;;;;;;;;;;5013011;28;20440;-80
2023/07/29 09:32:49;;;;;;;1.40;1.30;;;;;;;;;;5013121;28;20452;-78
2023/07/29 09:35:16;;;;;;;1.60;1.50;;;;;;;;;;5013126;28;20458;-76
2023/07/29 09:37:43;;;;;;;1.77;1.67;;;;;;;;;;5012957;28;20448;-78
2023/07/29 09:40:15;;;;;;;1.40;1.30;;;;;;;;;;5013239;28;20436;-78
2023/07/29 09:42:49;;;;;;;1.60;1.50;;;;;;;;;;5013128;28;20454;-79
2023/07/29 09:45:22;;;;;;;4.13;1.70;;;;;;;;;;5013158;28;20494;-79
2023/07/29 09:47:49;;;;;;;2.20;1.40;;;;;;;;;;5015496;28;20437;-79
2023/07/29 09:50:17;;;;;;;1.53;1.43;;;;;;;;;;5016404;28;20534;-79
2023/07/29 09:52:44;;;;;;;1.90;1.80;;;;;;;;;;5016337;28;20933;-79
2023/07/29 09:55:13;;;;;;;1.70;1.60;;;;;;;;;;5016337;28;20471;-79
2023/07/29 09:57:41;;;;;;;1.77;1.67;;;;;;;;;;5028950;28;20800;-79
2023/07/29 10:00:10;;;;;;;1.50;1.27;;;;;;;;;;5036335;28;20478;-79
2023/07/29 10:02:39;;;;;;;1.70;1.60;;;;;;;;;;5036356;28;20450;-79
2023/07/29 10:05:12;;;;;;;1.70;1.60;;;;;;;;;;5036295;28;20464;-79
2023/07/29 10:07:40;;;;;;;4.13;1.60;;;;;;;;;;5036309;28;20427;-78
2023/07/29 10:10:09;;;;;;;1.87;1.70;;;;;;;;;;5035922;28;20442;-79
2023/07/29 10:12:36;;;;;;;1.50;1.40;;;;;;;;;;5035773;28;20442;-79
2023/07/29 10:15:04;;;;;;;2.20;2.00;;;;;;;;;;5035760;28;20443;-78
2023/07/29 10:17:32;;;;;;;2.03;1.67;;;;;;;;;;5036146;28;20435;-80
2023/07/29 10:20:00;;;;;;;1.33;1.23;;;;;;;;;;5036152;28;20483;-77
2023/07/29 10:22:30;;;;;;;1.57;1.47;;;;;;;;;;5035894;28;20440;-79
2023/07/29 10:25:01;;;;;;;1.60;1.50;;;;;;;;;;5035692;28;20474;-79
2023/07/29 10:27:29;;;;;;;1.57;1.47;;;;;;;;;;5023667;28;20570;-78
2023/07/29 10:29:57;;;;;;;1.67;1.57;;;;;;;;;;5015901;28;20460;-80
2023/07/29 10:32:26;;;;;;;1.87;1.73;;;;;;;;;;5015498;28;20441;-80
2023/07/29 10:34:54;;;;;;;2.30;1.50;;;;;;;;;;5015886;28;20435;-78
2023/07/29 10:37:23;;;;;;;1.93;1.70;;;;;;;;;;5015778;28;20449;-79
2023/07/29 10:39:54;;;;;;;1.50;1.40;;;;;;;;;;5015461;28;20476;-78
2023/07/29 10:42:21;;;;;;;1.63;1.53;;;;;;;;;;5015344;28;20441;-81
2023/07/29 10:44:50;;;;;;;2.40;1.63;;;;;;;;;;5015731;28;20436;-79
2023/07/29 10:47:18;;;;;;;1.50;1.23;;;;;;;;;;5015587;28;20445;-78
2023/07/29 10:49:45;;;;;;;1.47;1.37;;;;;;;;;;5015148;28;20445;-79
2023/07/29 10:52:15;;;;;;;1.33;1.23;;;;;;;;;;5015221;28;20450;-78
2023/07/29 10:54:47;;;;;;;1.90;1.70;;;;;;;;;;5015193;28;20447;-78
2023/07/29 10:57:15;;;;;;;1.53;1.30;;;;;;;;;;5015033;28;20454;-78
2023/07/29 10:59:42;;;;;;;1.70;1.60;;;;;;;;;;5015065;28;20965;-78
2023/07/29 11:02:19;;;;;;;1.50;1.40;;;;;;;;;;5015319;28;20445;-79
2023/07/29 11:04:49;;;;;;;1.57;1.47;;;;;;;;;;5015132;28;20441;-79
2023/07/29 11:07:23;;;;;;;1.83;1.73;;;;;;;;;;5015311;28;20451;-79
2023/07/29 11:09:56;;;;;;;1.60;1.50;;;;;;;;;;5015146;28;20429;-78
2023/07/29 11:12:40;;;;;;;1.70;1.60;;;;;;;;;;5014966;28;20424;-78
2023/07/29 11:15:14;;;;;;;1.83;1.73;;;;;;;;;;5015047;28;20425;-78
2023/07/29 11:17:42;;;;;;;2.10;2.00;;;;;;;;;;5015591;28;20460;-78
2023/07/29 11:20:09;;;;;;;2.10;1.73;;;;;;;;;;5015128;28;20580;-78
2023/07/29 11:22:37;;;;;;;1.97;1.77;;;;;;;;;;5015445;28;20446;-78
2023/07/29 11:25:06;;;;;;;1.50;1.40;;;;;;;;;;5014860;28;20475;-77
2023/07/29 11:27:33;;;;;;;1.97;1.53;;;;;;;;;;5015014;28;20433;-78
2023/07/29 11:30:01;;;;;;;4.90;1.63;;;;;;;;;;5014704;28;20450;-78
2023/07/29 11:32:28;;;;;;;2.20;1.70;;;;;;;;;;5014484;28;20446;-78
2023/07/29 11:34:56;;;;;;;1.93;1.73;;;;;;;;;;5014911;28;20816;-77
2023/07/29 11:37:23;;;;;;;1.67;1.57;;;;;;;;;;5014700;28;20538;-77
2023/07/29 11:39:51;;;;;;;1.73;1.63;;;;;;;;;;5014777;28;20573;-78
2023/07/29 11:42:19;;;;;;;2.50;1.60;;;;;;;;;;5014619;28;20943;-77
2023/07/29 11:44:47;;;;;;;1.97;1.83;;;;;;;;;;5014860;28;20447;-77
2023/07/29 11:47:14;;;;;;;1.83;1.73;;;;;;;;;;5014929;28;20534;-78
2023/07/29 11:49:42;;;;;;;1.80;1.70;;;;;;;;;;5014783;28;20442;-78
2023/07/29 11:52:10;;;;;;;1.60;1.50;;;;;;;;;;5014603;28;21006;-79
2023/07/29 11:54:38;;;;;;;1.80;1.70;;;;;;;;;;5014510;28;20446;-79
2023/07/29 11:57:05;;;;;;;2.27;2.07;;;;;;;;;;5014166;28;20522;-78
2023/07/29 11:59:35;;;;;;;5.30;1.60;;;;;;;;;;5014269;28;20482;-79
2023/07/29 12:02:02;;;;;;;1.60;1.50;;;;;;;;;;5014224;28;20446;-78
2023/07/29 12:04:30;;;;;;;2.40;1.50;;;;;;;;;;5014382;28;20446;-78
2023/07/29 12:06:57;;;;;;;1.90;1.70;;;;;;;;;;5014372;28;20451;-79
2023/07/29 12:09:26;;;;;;;1.77;1.67;;;;;;;;;;5013154;28;20944;-79
2023/07/29 12:11:54;;;;;;;2.27;1.90;;;;;;;;;;5013975;28;20855;-79
2023/07/29 12:14:21;;;;;;;1.80;1.70;;;;;;;;;;5013842;28;20969;-79
2023/07/29 12:16:51;;;;;;;1.70;1.60;;;;;;;;;;5013856;28;20455;-79
2023/07/29 12:19:19;;;;;;;1.70;1.60;;;;;;;;;;5013997;28;20510;-79
2023/07/29 12:21:46;;;;;;;2.90;2.00;;;;;;;;;;5014128;28;20440;-69
2023/07/29 12:24:13;;;;;;;2.23;2.10;;;;;;;;;;5014084;28;20494;-71
2023/07/29 12:26:41;;;;;;;2.60;1.80;;;;;;;;;;5014000;28;20486;-71
2023/07/29 12:29:14;;;;;;;1.90;1.80;;;;;;;;;;5014576;28;20450;-70
2023/07/29 12:31:42;;;;;;;1.87;1.77;;;;;;;;;;5013859;28;20446;-71
2023/07/29 12:34:11;;;;;;;2.13;1.90;;;;;;;;;;5013914;28;20814;-70
2023/07/29 12:36:45;;;;;;;2.37;2.03;;;;;;;;;;5013626;28;20443;-70
2023/07/29 12:39:19;;;;;;;2.63;2.00;;;;;;;;;;5013789;28;20487;-70
2023/07/29 12:41:46;;;;;;;2.10;1.90;;;;;;;;;;5013406;28;20443;-71
2023/07/29 12:44:13;;;;;;;2.30;1.93;;;;;;;;;;5013857;28;20455;-70
2023/07/29 12:46:40;;;;;;;2.10;2.00;;;;;;;;;;5013634;28;20484;-70
2023/07/29 12:49:08;;;;;;;2.20;1.87;;;;;;;;;;5013194;28;20558;-70
2023/07/29 12:51:37;;;;;;;1.90;1.70;;;;;;;;;;5013562;28;20777;-70
2023/07/29 12:54:04;;;;;;;2.07;1.90;;;;;;;;;;5013127;28;20455;-70
2023/07/29 12:56:31;;;;;;;1.83;1.73;;;;;;;;;;5013733;28;20770;-70
2023/07/29 12:58:59;;;;;;;2.77;1.90;;;;;;;;;;5013493;28;20537;-70
2023/07/29 13:01:26;;;;;;;2.17;2.00;;;;;;;;;;5013066;28;20440;-70
2023/07/29 13:03:53;;;;;;;2.23;1.97;;;;;;;;;;5012953;28;20925;-70
2023/07/29 13:06:21;;;;;;;3.03;2.00;;;;;;;;;;5013471;28;20447;-70
2023/07/29 13:08:49;;;;;;;1.97;1.87;;;;;;;;;;5013361;28;20440;-70
2023/07/29 13:11:17;;;;;;;2.00;1.80;;;;;;;;;;5013303;28;20531;-71
2023/07/29 13:13:45;;;;;;;2.20;1.90;;;;;;;;;;5013061;28;20448;-70
2023/07/29 13:16:12;;;;;;;2.40;2.20;;;;;;;;;;5013408;28;20844;-70
2023/07/29 13:18:40;;;;;;;1.93;1.80;;;;;;;;;;5014010;28;20458;-70
2023/07/29 13:21:07;;;;;;;2.10;1.90;;;;;;;;;;5014665;28;21009;-70
2023/07/29 13:23:34;;;;;;;2.87;2.40;;;;;;;;;;5016893;28;20503;-70
2023/07/29 13:26:03;;;;;;;2.33;2.23;;;;;;;;;;5016771;28;20474;-70
2023/07/29 13:28:30;;;;;;;2.03;1.93;;;;;;;;;;5016760;28;20454;-70
2023/07/29 13:30:57;;;;;;;2.43;2.07;;;;;;;;;;5017116;28;20795;-70
2023/07/29 13:33:24;;;;;;;1.90;1.80;;;;;;;;;;5017105;28;20448;-70
2023/07/29 13:35:51;;;;;;;1.70;1.60;;;;;;;;;;5016986;28;20465;-70
2023/07/29 13:38:19;;;;;;;2.03;1.80;;;;;;;;;;5016627;28;20940;-70
2023/07/29 13:40:47;;;;;;;2.37;1.70;;;;;;;;;;5016502;28;21075;-70
2023/07/29 13:43:15;;;;;;;1.83;1.73;;;;;;;;;;5016828;28;20447;-71
2023/07/29 13:45:42;;;;;;;1.80;1.70;;;;;;;;;;5016791;28;20453;-70
2023/07/29 13:48:10;;;;;;;2.27;2.10;;;;;;;;;;5017080;28;20446;-71
2023/07/29 13:50:37;;;;;;;3.30;2.27;;;;;;;;;;5016335;28;20537;-70
2023/07/29 13:53:04;;;;;;;3.27;2.97;;;;;;;;;;5016340;28;20932;-71
2023/07/29 13:55:31;;;;;;;2.17;1.97;;;;;;;;;;5016223;28;20948;-71
2023/07/29 13:57:58;;;;;;;2.40;2.20;;;;;;;;;;5016662;28;20490;-72
2023/07/29 14:00:27;;;;;;;2.20;1.77;;;;;;;;;;5016448;28;20488;-72
2023/07/29 14:02:54;;;;;;;2.13;1.70;;;;;;;;;;5016554;28;20804;-72
2023/07/29 14:05:21;;;;;;;2.53;2.00;;;;;;;;;;5016413;28;20600;-70
2023/07/29 14:07:49;;;;;;;2.60;2.40;;;;;;;;;;5016213;28;20460;-71
2023/07/29 14:10:16;;;;;;;2.20;2.00;;;;;;;;;;5015405;28;20457;-70
2023/07/29 14:12:43;;;;;;;2.10;2.00;;;;;;;;;;5016541;28;20443;-70
2023/07/29 14:15:10;;;;;;;2.47;2.27;;;;;;;;;;5015951;28;20466;-70
2023/07/29 14:17:39;;;;;;;2.20;2.10;;;;;;;;;;5016036;28;20444;-70
2023/07/29 14:20:07;;;;;;;2.23;1.80;;;;;;;;;;5016168;28;20507;-72
2023/07/29 14:22:34;;;;;;;3.63;2.17;;;;;;;;;;5015885;28;20447;-71
2023/07/29 14:25:01;;;;;;;2.10;1.90;;;;;;;;;;5016068;28;20479;-70
2023/07/29 14:27:33;;;;;;;3.40;2.20;;;;;;;;;;5016552;28;20461;-68
2023/07/29 14:30:01;;;;;;;8.70;3.50;;;;;;;;;;5016546;28;20419;-67
2023/07/29 14:32:28;;;;;;;8.03;3.90;;;;;;;;;;5015284;28;20485;-68
2023/07/29 14:34:57;;;;;;;6.83;2.87;;;;;;;;;;5015770;28;20475;-68
2023/07/29 14:37:24;;;;;;;3.90;2.80;;;;;;;;;;5015687;28;20955;-68
2023/07/29 14:39:51;;;;;;;6.57;3.47;;;;;;;;;;5015801;28;20473;-68
2023/07/29 14:42:18;;;;;;;5.93;2.60;;;;;;;;;;5015909;28;20451;-68
2023/07/29 14:44:46;;;;;;;2.40;1.90;;;;;;;;;;5014203;28;20445;-70